sensor_id;sensor_type;location;lat;lon;timestamp;temperature;humidity
42803;DHT22;28447;48.682;9.022;2023-01-26T05:00:57;0.00;99.90
42803;DHT22;28447;48.682;9.022;2023-01-26T05:03:24;0.10;99.90
42803;DHT22;28447;48.682;9.022;2023-01-26T05:05:52;-0.10;99.90
42803;DHT22;28447;48.682;9.022;2023-01-26T05:08:19;-0.10;99.90
42803;DHT22;28447;48.682;9.022;2023-01-26T05:10:45;0.00;99.90
42803;DHT22;28447;48.682;9.022;2023-01-26T05:13:11;-0.10;99.90
42803;DHT22;28447;48.682;9.022;2023-01-26T05:15:37;0.00;99.90
42803;DHT22;28447;48.682;9.022;2023-01-26T05:18:03;0.00;99.90
42803;DHT22;28447;48.682;9.022;2023-01-26T05:20:29;0.00;99.90
42803;DHT22;28447;48.682;9.022;2023-01-26T05:22:55;0.10;99.90
42803;DHT22;28447;48.682;9.022;2023-01-26T05:25:21;0.00;99.90
42803;DHT22;28447;48.682;9.022;2023-01-26T05:27:47;-0.10;99.90
42803;DHT22;28447;48.682;9.022;2023-01-26T05:30:13;-0.10;99.90
42803;DHT22;28447;48.682;9.022;2023-01-26T05:32:39;0.00;99.90
42803;DHT22;28447;48.682;9.022;2023-01-26T05:35:05;-0.10;99.90
42803;DHT22;28447;48.682;9.022;2023-01-26T05:37:31;-0.10;99.90
42803;DHT22;28447;48.682;9.022;2023-01-26T05:39:57;-0.10;99.90
42803;DHT22;28447;48.682;9.022;2023-01-26T05:42:23;-0.10;99.90
42803;DHT22;28447;48.682;9.022;2023-01-26T05:44:49;-0.10;99.90
42803;DHT22;28447;48.682;9.022;2023-01-26T05:47:14;-0.10;99.90
42803;DHT22;28447;48.682;9.022;2023-01-26T05:49:40;-0.10;99.90
42803;DHT22;28447;48.682;9.022;2023-01-26T05:52:12;-0.10;99.90
42803;DHT22;28447;48.682;9.022;2023-01-26T05:54:38;-0.10;99.90
42803;DHT22;28447;48.682;9.022;2023-01-26T05:57:04;-0.20;99.90
42803;DHT22;28447;48.682;9.022;2023-01-26T05:59:30;-0.20;99.90
42803;DHT22;28447;48.682;9.022;2023-01-26T06:01:56;-0.10;99.90
42803;DHT22;28447;48.682;9.022;2023-01-26T06:04:22;-0.20;99.90
42803;DHT22;28447;48.682;9.022;2023-01-26T06:06:48;-0.10;99.90
42803;DHT22;28447;48.682;9.022;2023-01-26T06:09:14;-0.10;99.90
42803;DHT22;28447;48.682;9.022;2023-01-26T06:11:39;-0.10;99.90
42803;DHT22;28447;48.682;9.022;2023-01-26T06:14:05;-0.10;99.90
42803;DHT22;28447;48.682;9.022;2023-01-26T06:16:30;0.00;99.90
42803;DHT22;28447;48.682;9.022;2023-01-26T06:18:56;-0.10;99.90
42803;DHT22;28447;48.682;9.022;2023-01-26T06:21:22;0.00;99.90
42803;DHT22;28447;48.682;9.022;2023-01-26T06:23:47;0.00;99.90
42803;DHT22;28447;48.682;9.022;2023-01-26T06:26:13;-0.10;99.90
42803;DHT22;28447;48.682;9.022;2023-01-26T06:28:39;0.00;99.90
42803;DHT22;28447;48.682;9.022;2023-01-26T06:31:06;0.00;99.90
42803;DHT22;28447;48.682;9.022;2023-01-26T06:33:34;0.10;99.90
42803;DHT22;28447;48.682;9.022;2023-01-26T06:36:01;0.00;99.90
42803;DHT22;28447;48.682;9.022;2023-01-26T06:38:28;-0.10;99.90
42803;DHT22;28447;48.682;9.022;2023-01-26T06:40:54;0.10;99.90
42803;DHT22;28447;48.682;9.022;2023-01-26T06:43:20;0.10;99.90
42803;DHT22;28447;48.682;9.022;2023-01-26T06:45:45;0.10;99.90
42803;DHT22;28447;48.682;9.022;2023-01-26T06:48:11;0.10;99.90
42803;DHT22;28447;48.682;9.022;2023-01-26T06:50:38;0.00;99.90
42803;DHT22;28447;48.682;9.022;2023-01-26T06:53:23;-0.10;99.90
42803;DHT22;28447;48.682;9.022;2023-01-26T06:55:49;-0.20;99.90
42803;DHT22;28447;48.682;9.022;2023-01-26T06:58:16;-0.20;99.90
42803;DHT22;28447;48.682;9.022;2023-01-26T07:00:42;-0.30;99.90
42803;DHT22;28447;48.682;9.022;2023-01-26T07:03:09;-0.10;99.90
42803;DHT22;28447;48.682;9.022;2023-01-26T07:05:35;-0.20;99.90
42803;DHT22;28447;48.682;9.022;2023-01-26T07:08:00;-0.20;99.90
42803;DHT22;28447;48.682;9.022;2023-01-26T07:10:28;-0.10;99.90
42803;DHT22;28447;48.682;9.022;2023-01-26T07:12:54;-0.10;99.90
42803;DHT22;28447;48.682;9.022;2023-01-26T07:15:20;-0.20;99.90
42803;DHT22;28447;48.682;9.022;2023-01-26T07:17:46;-0.20;99.90
42803;DHT22;28447;48.682;9.022;2023-01-26T07:20:11;-0.20;99.90
42803;DHT22;28447;48.682;9.022;2023-01-26T07:22:37;-0.20;99.90
42803;DHT22;28447;48.682;9.022;2023-01-26T07:25:03;-0.10;99.90
42803;DHT22;28447;48.682;9.022;2023-01-26T07:27:28;-0.20;99.90
42803;DHT22;28447;48.682;9.022;2023-01-26T07:29:54;-0.30;99.90
42803;DHT22;28447;48.682;9.022;2023-01-26T07:32:19;-0.20;99.90
42803;DHT22;28447;48.682;9.022;2023-01-26T07:34:45;-0.20;99.90
42803;DHT22;28447;48.682;9.022;2023-01-26T07:37:11;-0.20;99.90
42803;DHT22;28447;48.682;9.022;2023-01-26T07:39:36;-0.20;99.90
42803;DHT22;28447;48.682;9.022;2023-01-26T07:42:02;-0.20;99.90
42803;DHT22;28447;48.682;9.022;2023-01-26T07:44:28;-0.10;99.90
42803;DHT22;28447;48.682;9.022;2023-01-26T07:46:53;-0.20;99.90
42803;DHT22;28447;48.682;9.022;2023-01-26T07:49:19;-0.10;99.90
42803;DHT22;28447;48.682;9.022;2023-01-26T07:51:44;-0.10;99.90
42803;DHT22;28447;48.682;9.022;2023-01-26T07:54:10;-0.10;99.90
42803;DHT22;28447;48.682;9.022;2023-01-26T07:56:37;-0.20;99.90
42803;DHT22;28447;48.682;9.022;2023-01-26T07:59:03;-0.30;99.90
42803;DHT22;28447;48.682;9.022;2023-01-26T08:01:29;-0.30;99.90
42803;DHT22;28447;48.682;9.022;2023-01-26T08:03:55;-0.20;99.90
42803;DHT22;28447;48.682;9.022;2023-01-26T08:06:21;-0.10;99.90
42803;DHT22;28447;48.682;9.022;2023-01-26T08:08:48;-0.20;99.90
42803;DHT22;28447;48.682;9.022;2023-01-26T08:11:18;-0.20;99.90
42803;DHT22;28447;48.682;9.022;2023-01-26T08:13:46;-0.10;99.90
42803;DHT22;28447;48.682;9.022;2023-01-26T08:16:12;-0.20;99.90
42803;DHT22;28447;48.682;9.022;2023-01-26T08:18:42;-0.40;99.90
42803;DHT22;28447;48.682;9.022;2023-01-26T08:21:08;-0.30;99.90
42803;DHT22;28447;48.682;9.022;2023-01-26T08:23:34;-0.30;99.90
42803;DHT22;28447;48.682;9.022;2023-01-26T08:26:05;-0.30;99.90
42803;DHT22;28447;48.682;9.022;2023-01-26T08:28:30;-0.20;99.90
42803;DHT22;28447;48.682;9.022;2023-01-26T08:31:01;-0.10;99.90
42803;DHT22;28447;48.682;9.022;2023-01-26T08:33:27;-0.10;99.90
42803;DHT22;28447;48.682;9.022;2023-01-26T08:35:52;-0.20;99.90
42803;DHT22;28447;48.682;9.022;2023-01-26T08:38:18;-0.20;99.90
42803;DHT22;28447;48.682;9.022;2023-01-26T08:40:44;-0.10;99.90
42803;DHT22;28447;48.682;9.022;2023-01-26T08:43:15;-0.20;99.90
42803;DHT22;28447;48.682;9.022;2023-01-26T08:45:40;-0.10;99.90
42803;DHT22;28447;48.682;9.022;2023-01-26T08:48:06;-0.10;99.90
42803;DHT22;28447;48.682;9.022;2023-01-26T08:50:31;-0.20;99.90
42803;DHT22;28447;48.682;9.022;2023-01-26T08:52:57;-0.20;99.90
42803;DHT22;28447;48.682;9.022;2023-01-26T08:55:23;-0.10;99.90
42803;DHT22;28447;48.682;9.022;2023-01-26T08:57:51;0.00;99.90
42803;DHT22;28447;48.682;9.022;2023-01-26T09:00:20;-0.10;99.90
42803;DHT22;28447;48.682;9.022;2023-01-26T09:02:45;-0.10;99.90
42803;DHT22;28447;48.682;9.022;2023-01-26T09:05:11;-0.10;99.90
42803;DHT22;28447;48.682;9.022;2023-01-26T09:07:37;-0.20;99.90
42803;DHT22;28447;48.682;9.022;2023-01-26T09:10:03;-0.10;99.90
42803;DHT22;28447;48.682;9.022;2023-01-26T09:12:29;-0.10;99.90
42803;DHT22;28447;48.682;9.022;2023-01-26T09:14:55;-0.10;99.90
42803;DHT22;28447;48.682;9.022;2023-01-26T09:17:20;-0.10;99.90
42803;DHT22;28447;48.682;9.022;2023-01-26T09:19:46;-0.10;99.90
42803;DHT22;28447;48.682;9.022;2023-01-26T09:22:11;0.00;99.90
42803;DHT22;28447;48.682;9.022;2023-01-26T09:24:37;-0.10;99.90
42803;DHT22;28447;48.682;9.022;2023-01-26T09:27:02;0.00;99.90
42803;DHT22;28447;48.682;9.022;2023-01-26T09:29:28;0.10;99.90
42803;DHT22;28447;48.682;9.022;2023-01-26T09:31:54;-0.10;99.90
42803;DHT22;28447;48.682;9.022;2023-01-26T09:34:19;-0.20;99.90
42803;DHT22;28447;48.682;9.022;2023-01-26T09:36:45;-0.10;99.90
42803;DHT22;28447;48.682;9.022;2023-01-26T09:39:10;0.00;99.90
42803;DHT22;28447;48.682;9.022;2023-01-26T09:41:57;0.00;99.90
42803;DHT22;28447;48.682;9.022;2023-01-26T09:44:32;-0.10;99.90
42803;DHT22;28447;48.682;9.022;2023-01-26T09:49:37;-0.20;99.90
42803;DHT22;28447;48.682;9.022;2023-01-26T09:54:45;-0.30;99.90
42803;DHT22;28447;48.682;9.022;2023-01-26T09:57:25;-0.20;99.90
42803;DHT22;28447;48.682;9.022;2023-01-26T10:00:15;-0.20;99.90
42803;DHT22;28447;48.682;9.022;2023-01-26T10:05:47;-0.10;99.90
42803;DHT22;28447;48.682;9.022;2023-01-26T10:08:17;-0.20;99.90
42803;DHT22;28447;48.682;9.022;2023-01-26T10:11:11;-0.10;99.90
42803;DHT22;28447;48.682;9.022;2023-01-26T10:13:37;-0.20;99.90
42803;DHT22;28447;48.682;9.022;2023-01-26T10:16:06;-0.30;99.90
42803;DHT22;28447;48.682;9.022;2023-01-26T10:18:52;-0.20;99.90
42803;DHT22;28447;48.682;9.022;2023-01-26T10:21:21;-0.30;99.90
42803;DHT22;28447;48.682;9.022;2023-01-26T10:23:48;-0.40;99.90
42803;DHT22;28447;48.682;9.022;2023-01-26T10:26:17;-0.40;99.90
42803;DHT22;28447;48.682;9.022;2023-01-26T10:28:45;-0.30;99.90
42803;DHT22;28447;48.682;9.022;2023-01-26T10:31:32;-0.40;99.90
42803;DHT22;28447;48.682;9.022;2023-01-26T10:34:07;-0.40;99.90
42803;DHT22;28447;48.682;9.022;2023-01-26T10:36:34;-0.40;99.90
42803;DHT22;28447;48.682;9.022;2023-01-26T10:39:05;-0.30;99.90
42803;DHT22;28447;48.682;9.022;2023-01-26T10:41:31;-0.20;99.90
42803;DHT22;28447;48.682;9.022;2023-01-26T10:46:38;0.00;99.90
42803;DHT22;28447;48.682;9.022;2023-01-26T10:51:35;-0.30;99.90
42803;DHT22;28447;48.682;9.022;2023-01-26T10:54:30;-0.40;99.90
42803;DHT22;28447;48.682;9.022;2023-01-26T10:57:02;-0.30;99.90
42803;DHT22;28447;48.682;9.022;2023-01-26T11:02:35;-0.40;99.90
42803;DHT22;28447;48.682;9.022;2023-01-26T11:07:36;-0.40;99.90
42803;DHT22;28447;48.682;9.022;2023-01-26T11:10:25;-0.40;99.90
42803;DHT22;28447;48.682;9.022;2023-01-26T11:13:14;-0.40;99.90
42803;DHT22;28447;48.682;9.022;2023-01-26T11:15:49;-0.40;99.90
42803;DHT22;28447;48.682;9.022;2023-01-26T11:21:14;-0.20;99.90
42803;DHT22;28447;48.682;9.022;2023-01-26T11:29:00;-0.20;99.90
42803;DHT22;28447;48.682;9.022;2023-01-26T11:37:41;0.00;99.90
42803;DHT22;28447;48.682;9.022;2023-01-26T11:40:18;-0.10;99.90
42803;DHT22;28447;48.682;9.022;2023-01-26T11:46:01;-0.40;99.90
42803;DHT22;28447;48.682;9.022;2023-01-26T11:54:47;-0.30;99.90
42803;DHT22;28447;48.682;9.022;2023-01-26T12:02:35;-0.20;99.90
42803;DHT22;28447;48.682;9.022;2023-01-26T12:05:17;-0.30;99.90
42803;DHT22;28447;48.682;9.022;2023-01-26T12:08:00;-0.20;99.90
42803;DHT22;28447;48.682;9.022;2023-01-26T12:10:35;-0.40;99.90
42803;DHT22;28447;48.682;9.022;2023-01-26T12:13:30;-0.50;99.90
42803;DHT22;28447;48.682;9.022;2023-01-26T12:16:03;-0.30;99.90
42803;DHT22;28447;48.682;9.022;2023-01-26T12:18:33;-0.40;99.90
42803;DHT22;28447;48.682;9.022;2023-01-26T12:21:09;-0.40;99.90
42803;DHT22;28447;48.682;9.022;2023-01-26T12:26:21;-0.40;99.90
42803;DHT22;28447;48.682;9.022;2023-01-26T12:31:57;-0.30;99.90
42803;DHT22;28447;48.682;9.022;2023-01-26T12:34:31;-0.10;99.90
42803;DHT22;28447;48.682;9.022;2023-01-26T12:45:55;-0.30;99.90
42803;DHT22;28447;48.682;9.022;2023-01-26T12:48:23;-0.30;99.90
42803;DHT22;28447;48.682;9.022;2023-01-26T12:50:56;-0.30;99.90
42803;DHT22;28447;48.682;9.022;2023-01-26T12:53:34;-0.30;99.90
42803;DHT22;28447;48.682;9.022;2023-01-26T12:58:41;-0.40;99.90
42803;DHT22;28447;48.682;9.022;2023-01-26T13:01:11;-0.40;99.90
42803;DHT22;28447;48.682;9.022;2023-01-26T13:03:55;-0.40;99.90
42803;DHT22;28447;48.682;9.022;2023-01-26T13:06:24;-0.40;99.90
42803;DHT22;28447;48.682;9.022;2023-01-26T13:14:36;-0.40;99.90
42803;DHT22;28447;48.682;9.022;2023-01-26T13:24:47;-0.40;99.90
42803;DHT22;28447;48.682;9.022;2023-01-26T13:27:39;-0.50;99.90
42803;DHT22;28447;48.682;9.022;2023-01-26T13:35:22;-0.30;99.90
42803;DHT22;28447;48.682;9.022;2023-01-26T13:37:56;-0.20;99.90
42803;DHT22;28447;48.682;9.022;2023-01-26T13:40:34;-0.20;99.90
42803;DHT22;28447;48.682;9.022;2023-01-26T13:43:26;-0.40;99.90
42803;DHT22;28447;48.682;9.022;2023-01-26T13:46:16;-0.40;99.90
42803;DHT22;28447;48.682;9.022;2023-01-26T13:48:46;-0.50;99.90
42803;DHT22;28447;48.682;9.022;2023-01-26T13:56:32;-0.40;99.90
42803;DHT22;28447;48.682;9.022;2023-01-26T14:01:33;-0.30;99.90
42803;DHT22;28447;48.682;9.022;2023-01-26T14:04:06;-0.30;99.90
42803;DHT22;28447;48.682;9.022;2023-01-26T14:06:33;-0.30;99.90
42803;DHT22;28447;48.682;9.022;2023-01-26T14:09:02;-0.40;99.90
42803;DHT22;28447;48.682;9.022;2023-01-26T14:11:31;-0.40;99.90
42803;DHT22;28447;48.682;9.022;2023-01-26T14:13:59;-0.40;99.90
42803;DHT22;28447;48.682;9.022;2023-01-26T14:16:34;-0.50;99.90
42803;DHT22;28447;48.682;9.022;2023-01-26T14:19:15;-0.50;99.90
42803;DHT22;28447;48.682;9.022;2023-01-26T14:21:46;-0.60;99.90
42803;DHT22;28447;48.682;9.022;2023-01-26T14:24:12;-0.70;99.90
42803;DHT22;28447;48.682;9.022;2023-01-26T14:26:39;-0.70;99.90
42803;DHT22;28447;48.682;9.022;2023-01-26T14:29:10;-0.60;99.90
42803;DHT22;28447;48.682;9.022;2023-01-26T14:31:36;-0.50;99.90
42803;DHT22;28447;48.682;9.022;2023-01-26T14:34:08;-0.50;99.90
42803;DHT22;28447;48.682;9.022;2023-01-26T14:36:34;-0.50;99.90
42803;DHT22;28447;48.682;9.022;2023-01-26T14:39:19;-0.70;99.90
42803;DHT22;28447;48.682;9.022;2023-01-26T14:41:45;-0.50;99.90
42803;DHT22;28447;48.682;9.022;2023-01-26T14:44:12;-0.50;99.90
42803;DHT22;28447;48.682;9.022;2023-01-26T14:52:23;-0.50;99.90
42803;DHT22;28447;48.682;9.022;2023-01-26T14:54:54;-0.40;99.90
42803;DHT22;28447;48.682;9.022;2023-01-26T14:57:23;-0.50;99.90
42803;DHT22;28447;48.682;9.022;2023-01-26T14:59:52;-0.50;99.90
42803;DHT22;28447;48.682;9.022;2023-01-26T15:02:35;-0.40;99.90
42803;DHT22;28447;48.682;9.022;2023-01-26T15:05:09;-0.40;99.90
42803;DHT22;28447;48.682;9.022;2023-01-26T15:07:45;-0.40;99.90
42803;DHT22;28447;48.682;9.022;2023-01-26T15:10:34;-0.50;99.90
42803;DHT22;28447;48.682;9.022;2023-01-26T15:15:42;-0.80;99.90
42803;DHT22;28447;48.682;9.022;2023-01-26T15:18:19;-0.80;99.90
42803;DHT22;28447;48.682;9.022;2023-01-26T15:23:29;-0.70;99.90
42803;DHT22;28447;48.682;9.022;2023-01-26T15:26:10;-0.70;99.90
42803;DHT22;28447;48.682;9.022;2023-01-26T15:28:37;-0.60;99.90
42803;DHT22;28447;48.682;9.022;2023-01-26T15:31:03;-0.60;99.90
42803;DHT22;28447;48.682;9.022;2023-01-26T15:33:50;-0.60;99.90
42803;DHT22;28447;48.682;9.022;2023-01-26T15:38:58;-0.50;99.90
42803;DHT22;28447;48.682;9.022;2023-01-26T15:41:24;-0.70;99.90
42803;DHT22;28447;48.682;9.022;2023-01-26T15:43:50;-0.70;99.90
42803;DHT22;28447;48.682;9.022;2023-01-26T15:46:16;-0.60;99.90
42803;DHT22;28447;48.682;9.022;2023-01-26T15:48:41;-0.60;99.90
42803;DHT22;28447;48.682;9.022;2023-01-26T15:51:13;-0.50;99.90
42803;DHT22;28447;48.682;9.022;2023-01-26T15:53:39;-0.50;99.90
42803;DHT22;28447;48.682;9.022;2023-01-26T15:56:09;-0.60;99.90
42803;DHT22;28447;48.682;9.022;2023-01-26T15:58:35;-0.70;99.90
42803;DHT22;28447;48.682;9.022;2023-01-26T16:01:01;-0.70;99.90
42803;DHT22;28447;48.682;9.022;2023-01-26T16:03:27;-0.80;99.90
42803;DHT22;28447;48.682;9.022;2023-01-26T16:05:52;-0.70;99.90
42803;DHT22;28447;48.682;9.022;2023-01-26T16:08:18;-0.70;99.90
42803;DHT22;28447;48.682;9.022;2023-01-26T16:10:45;-0.80;99.90
42803;DHT22;28447;48.682;9.022;2023-01-26T16:13:16;-0.80;99.90
42803;DHT22;28447;48.682;9.022;2023-01-26T16:15:47;-0.60;99.90
42803;DHT22;28447;48.682;9.022;2023-01-26T16:18:13;-0.60;99.90
42803;DHT22;28447;48.682;9.022;2023-01-26T16:20:41;-0.50;99.90
42803;DHT22;28447;48.682;9.022;2023-01-26T16:23:23;-0.50;99.90
42803;DHT22;28447;48.682;9.022;2023-01-26T16:25:49;-0.60;99.90
42803;DHT22;28447;48.682;9.022;2023-01-26T16:28:16;-0.60;99.90
42803;DHT22;28447;48.682;9.022;2023-01-26T16:30:43;-0.80;99.90
42803;DHT22;28447;48.682;9.022;2023-01-26T16:33:14;-0.80;99.90
42803;DHT22;28447;48.682;9.022;2023-01-26T16:35:40;-0.80;99.90
42803;DHT22;28447;48.682;9.022;2023-01-26T16:38:07;-0.80;99.90
42803;DHT22;28447;48.682;9.022;2023-01-26T16:40:40;-0.80;99.90
42803;DHT22;28447;48.682;9.022;2023-01-26T16:43:20;-0.70;99.90
42803;DHT22;28447;48.682;9.022;2023-01-26T16:45:47;-0.60;99.90
42803;DHT22;28447;48.682;9.022;2023-01-26T16:48:14;-0.60;99.90
42803;DHT22;28447;48.682;9.022;2023-01-26T16:50:41;-0.60;99.90
42803;DHT22;28447;48.682;9.022;2023-01-26T16:55:46;-0.60;99.90
42803;DHT22;28447;48.682;9.022;2023-01-26T16:58:12;-0.60;99.90
42803;DHT22;28447;48.682;9.022;2023-01-26T17:00:37;-0.50;99.90
42803;DHT22;28447;48.682;9.022;2023-01-26T17:03:03;-0.70;99.90
42803;DHT22;28447;48.682;9.022;2023-01-26T17:05:30;-0.80;99.90
42803;DHT22;28447;48.682;9.022;2023-01-26T17:07:56;-0.80;99.90
42803;DHT22;28447;48.682;9.022;2023-01-26T17:10:22;-0.70;99.90
42803;DHT22;28447;48.682;9.022;2023-01-26T17:12:48;-0.80;99.90
42803;DHT22;28447;48.682;9.022;2023-01-26T17:15:14;-0.80;99.90
42803;DHT22;28447;48.682;9.022;2023-01-26T17:17:40;-0.80;99.90
42803;DHT22;28447;48.682;9.022;2023-01-26T17:20:07;-0.80;99.90
42803;DHT22;28447;48.682;9.022;2023-01-26T17:22:33;-0.80;99.90
42803;DHT22;28447;48.682;9.022;2023-01-26T17:24:59;-0.80;99.90
42803;DHT22;28447;48.682;9.022;2023-01-26T17:27:25;-1.00;99.90
42803;DHT22;28447;48.682;9.022;2023-01-26T17:29:50;-0.90;99.90
42803;DHT22;28447;48.682;9.022;2023-01-26T17:32:16;-0.90;99.90
42803;DHT22;28447;48.682;9.022;2023-01-26T17:34:48;-0.90;99.90
42803;DHT22;28447;48.682;9.022;2023-01-26T17:37:14;-1.00;99.90
42803;DHT22;28447;48.682;9.022;2023-01-26T17:39:40;-1.10;99.90
42803;DHT22;28447;48.682;9.022;2023-01-26T17:42:05;-1.00;99.90
42803;DHT22;28447;48.682;9.022;2023-01-26T17:44:31;-1.00;99.90
42803;DHT22;28447;48.682;9.022;2023-01-26T17:46:57;-0.80;99.90
42803;DHT22;28447;48.682;9.022;2023-01-26T17:49:23;-0.80;99.90
42803;DHT22;28447;48.682;9.022;2023-01-26T17:51:49;-1.00;99.90
42803;DHT22;28447;48.682;9.022;2023-01-26T17:54:15;-0.90;99.90
42803;DHT22;28447;48.682;9.022;2023-01-26T17:56:42;-0.90;99.90
42803;DHT22;28447;48.682;9.022;2023-01-26T17:59:08;-0.90;99.90
42803;DHT22;28447;48.682;9.022;2023-01-26T18:01:34;-1.00;99.90
42803;DHT22;28447;48.682;9.022;2023-01-26T18:03:59;-0.90;99.90
42803;DHT22;28447;48.682;9.022;2023-01-26T18:06:27;-1.00;99.90
42803;DHT22;28447;48.682;9.022;2023-01-26T18:08:52;-0.90;99.90
42803;DHT22;28447;48.682;9.022;2023-01-26T18:11:19;-0.90;99.90
42803;DHT22;28447;48.682;9.022;2023-01-26T18:13:45;-0.80;99.90
42803;DHT22;28447;48.682;9.022;2023-01-26T18:16:18;-0.90;99.90
42803;DHT22;28447;48.682;9.022;2023-01-26T18:18:44;-1.00;99.90
42803;DHT22;28447;48.682;9.022;2023-01-26T18:21:16;-0.90;99.90
42803;DHT22;28447;48.682;9.022;2023-01-26T18:23:46;-1.00;99.90
42803;DHT22;28447;48.682;9.022;2023-01-26T18:26:13;-1.00;99.90
42803;DHT22;28447;48.682;9.022;2023-01-26T18:28:39;-0.90;99.90
42803;DHT22;28447;48.682;9.022;2023-01-26T18:31:08;-0.90;99.90
42803;DHT22;28447;48.682;9.022;2023-01-26T18:33:34;-1.00;99.90
42803;DHT22;28447;48.682;9.022;2023-01-26T18:36:08;-0.90;99.90
42803;DHT22;28447;48.682;9.022;2023-01-26T18:38:43;-1.00;99.90
42803;DHT22;28447;48.682;9.022;2023-01-26T18:41:14;-1.10;99.90
42803;DHT22;28447;48.682;9.022;2023-01-26T18:43:40;-1.00;99.90
42803;DHT22;28447;48.682;9.022;2023-01-26T18:46:07;-1.00;99.90
42803;DHT22;28447;48.682;9.022;2023-01-26T18:48:33;-1.00;99.90
42803;DHT22;28447;48.682;9.022;2023-01-26T18:51:02;-1.00;99.90
42803;DHT22;28447;48.682;9.022;2023-01-26T18:53:29;-1.10;99.90
42803;DHT22;28447;48.682;9.022;2023-01-26T18:56:21;-1.20;99.90
42803;DHT22;28447;48.682;9.022;2023-01-26T18:58:46;-1.10;99.90
42803;DHT22;28447;48.682;9.022;2023-01-26T19:01:14;-1.20;99.90
42803;DHT22;28447;48.682;9.022;2023-01-26T19:03:41;-1.20;99.90
42803;DHT22;28447;48.682;9.022;2023-01-26T19:06:13;-1.30;99.90
42803;DHT22;28447;48.682;9.022;2023-01-26T19:08:43;-1.20;99.90
42803;DHT22;28447;48.682;9.022;2023-01-26T19:11:09;-1.10;99.90
42803;DHT22;28447;48.682;9.022;2023-01-26T19:13:35;-1.20;99.90
42803;DHT22;28447;48.682;9.022;2023-01-26T19:16:01;-1.20;99.90
42803;DHT22;28447;48.682;9.022;2023-01-26T19:18:27;-1.30;99.90
42803;DHT22;28447;48.682;9.022;2023-01-26T19:20:57;-1.20;99.90
42803;DHT22;28447;48.682;9.022;2023-01-26T19:23:23;-1.20;99.90
42803;DHT22;28447;48.682;9.022;2023-01-26T19:25:48;-1.20;99.90
42803;DHT22;28447;48.682;9.022;2023-01-26T19:28:14;-1.30;99.90
42803;DHT22;28447;48.682;9.022;2023-01-26T19:30:40;-1.20;99.90
42803;DHT22;28447;48.682;9.022;2023-01-26T19:33:05;-1.40;99.90
42803;DHT22;28447;48.682;9.022;2023-01-26T19:35:50;-1.40;99.90
42803;DHT22;28447;48.682;9.022;2023-01-26T19:38:16;-1.30;99.90
42803;DHT22;28447;48.682;9.022;2023-01-26T19:40:43;-1.30;99.90
42803;DHT22;28447;48.682;9.022;2023-01-26T19:43:10;-1.40;99.90
42803;DHT22;28447;48.682;9.022;2023-01-26T19:45:37;-1.50;99.90
42803;DHT22;28447;48.682;9.022;2023-01-26T19:48:03;-1.50;99.90
42803;DHT22;28447;48.682;9.022;2023-01-26T19:50:28;-1.40;99.90
42803;DHT22;28447;48.682;9.022;2023-01-26T19:52:54;-1.40;99.90
42803;DHT22;28447;48.682;9.022;2023-01-26T19:55:20;-1.60;99.90
42803;DHT22;28447;48.682;9.022;2023-01-26T19:57:46;-1.50;99.90
42803;DHT22;28447;48.682;9.022;2023-01-26T20:00:12;-1.60;99.90
42803;DHT22;28447;48.682;9.022;2023-01-26T20:02:39;-1.50;99.90
42803;DHT22;28447;48.682;9.022;2023-01-26T20:05:04;-1.40;99.90
42803;DHT22;28447;48.682;9.022;2023-01-26T20:07:30;-1.40;99.90
42803;DHT22;28447;48.682;9.022;2023-01-26T20:09:56;-1.30;99.90
42803;DHT22;28447;48.682;9.022;2023-01-26T20:12:21;-1.40;99.90
42803;DHT22;28447;48.682;9.022;2023-01-26T20:14:47;-1.40;99.90
42803;DHT22;28447;48.682;9.022;2023-01-26T20:17:14;-1.30;99.90
42803;DHT22;28447;48.682;9.022;2023-01-26T20:19:41;-1.40;99.90
42803;DHT22;28447;48.682;9.022;2023-01-26T20:22:06;-1.40;99.90
42803;DHT22;28447;48.682;9.022;2023-01-26T20:24:33;-1.40;99.90
42803;DHT22;28447;48.682;9.022;2023-01-26T20:26:58;-1.20;99.90
42803;DHT22;28447;48.682;9.022;2023-01-26T20:29:24;-1.20;99.90
42803;DHT22;28447;48.682;9.022;2023-01-26T20:31:50;-1.20;99.90
42803;DHT22;28447;48.682;9.022;2023-01-26T20:34:15;-1.30;99.90
42803;DHT22;28447;48.682;9.022;2023-01-26T20:36:41;-1.40;99.90
42803;DHT22;28447;48.682;9.022;2023-01-26T20:39:10;-1.40;99.90
42803;DHT22;28447;48.682;9.022;2023-01-26T20:41:37;-1.50;99.90
42803;DHT22;28447;48.682;9.022;2023-01-26T20:44:05;-1.30;99.90
42803;DHT22;28447;48.682;9.022;2023-01-26T20:46:37;-1.20;99.90
42803;DHT22;28447;48.682;9.022;2023-01-26T20:49:03;-1.40;99.90
42803;DHT22;28447;48.682;9.022;2023-01-26T20:51:32;-1.30;99.90
42803;DHT22;28447;48.682;9.022;2023-01-26T20:54:00;-1.30;99.90
42803;DHT22;28447;48.682;9.022;2023-01-26T20:56:27;-1.40;99.90
42803;DHT22;28447;48.682;9.022;2023-01-26T20:58:54;-1.20;99.90
42803;DHT22;28447;48.682;9.022;2023-01-26T21:01:21;-1.30;99.90
42803;DHT22;28447;48.682;9.022;2023-01-26T21:03:47;-1.40;99.90
42803;DHT22;28447;48.682;9.022;2023-01-26T21:06:14;-1.40;99.90
42803;DHT22;28447;48.682;9.022;2023-01-26T21:08:41;-1.40;99.90
42803;DHT22;28447;48.682;9.022;2023-01-26T21:11:09;-1.40;99.90
42803;DHT22;28447;48.682;9.022;2023-01-26T21:13:36;-1.40;99.90
42803;DHT22;28447;48.682;9.022;2023-01-26T21:16:02;-1.30;99.90
42803;DHT22;28447;48.682;9.022;2023-01-26T21:18:28;-1.30;99.90
42803;DHT22;28447;48.682;9.022;2023-01-26T21:20:59;-1.30;99.90
42803;DHT22;28447;48.682;9.022;2023-01-26T21:23:25;-1.50;99.90
42803;DHT22;28447;48.682;9.022;2023-01-26T21:26:02;-1.30;99.90
42803;DHT22;28447;48.682;9.022;2023-01-26T21:28:29;-1.30;99.90
42803;DHT22;28447;48.682;9.022;2023-01-26T21:31:02;-1.50;99.90
42803;DHT22;28447;48.682;9.022;2023-01-26T21:33:29;-1.50;99.90
42803;DHT22;28447;48.682;9.022;2023-01-26T21:35:56;-1.60;99.90
42803;DHT22;28447;48.682;9.022;2023-01-26T21:38:23;-1.50;99.90
42803;DHT22;28447;48.682;9.022;2023-01-26T21:41:17;-1.40;99.90
42803;DHT22;28447;48.682;9.022;2023-01-26T21:44:06;-1.30;99.90
42803;DHT22;28447;48.682;9.022;2023-01-26T21:46:32;-1.50;99.90
42803;DHT22;28447;48.682;9.022;2023-01-26T21:48:58;-1.50;99.90
42803;DHT22;28447;48.682;9.022;2023-01-26T21:51:24;-1.50;99.90
42803;DHT22;28447;48.682;9.022;2023-01-26T21:54:26;-1.50;99.90
42803;DHT22;28447;48.682;9.022;2023-01-26T21:56:54;-1.50;99.90
42803;DHT22;28447;48.682;9.022;2023-01-26T21:59:19;-1.50;99.90
42803;DHT22;28447;48.682;9.022;2023-01-26T22:01:48;-1.40;99.90
42803;DHT22;28447;48.682;9.022;2023-01-26T22:04:17;-1.70;99.90
42803;DHT22;28447;48.682;9.022;2023-01-26T22:06:43;-1.70;99.90
42803;DHT22;28447;48.682;9.022;2023-01-26T22:09:11;-1.60;99.90
42803;DHT22;28447;48.682;9.022;2023-01-26T22:11:37;-1.70;99.90
42803;DHT22;28447;48.682;9.022;2023-01-26T22:14:03;-1.60;99.90
42803;DHT22;28447;48.682;9.022;2023-01-26T22:16:29;-1.60;99.90
42803;DHT22;28447;48.682;9.022;2023-01-26T22:18:55;-1.70;99.90
42803;DHT22;28447;48.682;9.022;2023-01-26T22:21:21;-1.70;99.90
42803;DHT22;28447;48.682;9.022;2023-01-26T22:23:47;-1.60;99.90
42803;DHT22;28447;48.682;9.022;2023-01-26T22:26:20;-1.60;99.90
42803;DHT22;28447;48.682;9.022;2023-01-26T22:28:53;-1.60;99.90
42803;DHT22;28447;48.682;9.022;2023-01-26T22:31:22;-1.60;99.90